createdAt,value
2019-05-09T00:01:23.509Z,43.90
2019-05-09T00:03:51.200Z,43.90
2019-05-09T00:06:18.790Z,43.80
2019-05-09T00:08:46.370Z,43.70
2019-05-09T00:11:14.616Z,43.70
2019-05-09T00:13:43.435Z,43.60
2019-05-09T00:16:11.206Z,43.60
2019-05-09T00:18:38.705Z,43.40
2019-05-09T00:21:07.878Z,43.40
2019-05-09T00:23:35.394Z,43.40
2019-05-09T00:26:04.210Z,43.30
2019-05-09T00:28:35.923Z,43.40
2019-05-09T00:31:07.226Z,43.40
2019-05-09T00:33:34.751Z,43.30
2019-05-09T00:36:04.247Z,43.40
2019-05-09T00:38:36.106Z,43.40
2019-05-09T00:41:03.923Z,43.50
2019-05-09T00:43:31.562Z,43.70
2019-05-09T00:46:00.723Z,43.60
2019-05-09T00:48:30.230Z,43.60
2019-05-09T00:50:57.733Z,43.50
2019-05-09T00:53:25.245Z,43.50
2019-05-09T00:55:53.087Z,43.40
2019-05-09T00:58:20.672Z,43.40
2019-05-09T01:00:48.354Z,43.30
2019-05-09T01:03:15.877Z,43.40
2019-05-09T01:05:43.752Z,43.30
2019-05-09T01:08:13.562Z,43.30
2019-05-09T01:10:40.711Z,43.30
2019-05-09T01:13:08.274Z,43.40
2019-05-09T01:15:35.783Z,43.30
2019-05-09T01:18:04.443Z,43.30
2019-05-09T01:20:33.296Z,43.30
2019-05-09T01:23:03.306Z,43.30
2019-05-09T01:25:30.418Z,43.30
2019-05-09T01:27:57.930Z,43.30
2019-05-09T01:30:25.429Z,43.90
2019-05-09T01:32:54.603Z,43.30
2019-05-09T01:35:23.284Z,43.40
2019-05-09T01:37:50.914Z,44.30
2019-05-09T01:40:18.421Z,43.90
2019-05-09T01:42:45.940Z,44.00
2019-05-09T01:45:14.137Z,44.10
2019-05-09T01:47:43.054Z,43.90
2019-05-09T01:50:10.704Z,43.90
2019-05-09T01:52:38.204Z,43.90
2019-05-09T01:55:06.048Z,43.90
2019-05-09T01:57:33.767Z,43.70
2019-05-09T02:00:03.569Z,43.70
2019-05-09T02:02:30.617Z,43.50
2019-05-09T02:04:58.152Z,43.50
2019-05-09T02:07:25.725Z,43.40
2019-05-09T02:09:54.009Z,43.40
2019-05-09T02:12:21.621Z,43.30
2019-05-09T02:14:50.769Z,43.30
2019-05-09T02:17:19.905Z,43.40
2019-05-09T02:19:47.693Z,43.30
2019-05-09T02:22:34.660Z,43.60
2019-05-09T02:25:04.337Z,43.30
2019-05-09T02:27:33.207Z,43.30
2019-05-09T02:30:00.947Z,43.40
2019-05-09T02:32:28.573Z,43.50
2019-05-09T02:34:56.161Z,43.60
2019-05-09T02:37:23.657Z,43.40
2019-05-09T02:39:51.179Z,43.20
2019-05-09T02:42:19.692Z,43.30
2019-05-09T02:44:49.305Z,43.20
2019-05-09T02:47:29.023Z,43.30
2019-05-09T02:49:58.735Z,43.40
2019-05-09T02:52:25.030Z,43.30
2019-05-09T02:54:52.558Z,43.20
2019-05-09T02:57:20.445Z,43.20
2019-05-09T02:59:49.657Z,43.20
2019-05-09T03:02:19.730Z,43.30
2019-05-09T03:04:48.967Z,43.20
2019-05-09T03:07:18.863Z,43.10
2019-05-09T03:09:47.955Z,43.10
2019-05-09T03:12:26.039Z,43.10
2019-05-09T03:14:44.430Z,43.10
2019-05-09T03:17:11.949Z,43.10
2019-05-09T03:19:39.469Z,43.10
2019-05-09T03:22:14.624Z,43.40
2019-05-09T03:24:42.151Z,43.30
2019-05-09T03:27:11.302Z,43.30
2019-05-09T03:29:40.450Z,43.20
2019-05-09T03:32:09.149Z,43.40
2019-05-09T03:34:37.341Z,43.20
2019-05-09T03:37:04.926Z,43.20
2019-05-09T03:39:32.425Z,43.30
2019-05-09T03:41:59.942Z,43.30
2019-05-09T03:44:28.247Z,43.30
2019-05-09T03:46:58.149Z,43.30
2019-05-09T03:49:28.148Z,43.20
2019-05-09T03:51:55.065Z,43.20
2019-05-09T03:54:22.573Z,43.00
2019-05-09T03:57:03.547Z,43.10
2019-05-09T03:59:31.053Z,43.10
2019-05-09T04:01:59.121Z,43.10
2019-05-09T04:04:28.057Z,43.00
2019-05-09T04:06:57.986Z,43.00
2019-05-09T04:09:27.204Z,43.10
2019-05-09T04:11:54.285Z,43.40
2019-05-09T04:14:23.442Z,43.20
2019-05-09T04:16:50.947Z,43.30
2019-05-09T04:19:18.446Z,43.40
2019-05-09T04:21:48.266Z,43.60
2019-05-09T04:24:17.487Z,43.60
2019-05-09T04:26:48.275Z,43.50
2019-05-09T04:29:15.309Z,43.60
2019-05-09T04:31:42.827Z,43.40
2019-05-09T04:34:10.334Z,43.40
2019-05-09T04:36:40.694Z,43.40
2019-05-09T04:39:12.669Z,43.40
2019-05-09T04:41:40.729Z,43.40
2019-05-09T04:44:16.851Z,43.70
2019-05-09T04:46:39.088Z,43.60
2019-05-09T04:49:08.194Z,43.60
2019-05-09T04:51:39.141Z,43.60
2019-05-09T04:54:07.214Z,43.70
2019-05-09T04:56:41.618Z,43.70
2019-05-09T04:59:09.125Z,43.80
2019-05-09T05:01:38.932Z,43.90
2019-05-09T05:04:07.734Z,43.90
2019-05-09T05:06:35.517Z,44.00
2019-05-09T05:09:04.922Z,44.00
2019-05-09T05:11:32.421Z,44.40
2019-05-09T05:13:59.965Z,44.50
2019-05-09T05:16:27.534Z,44.40
2019-05-09T05:18:55.077Z,44.40
2019-05-09T05:21:22.581Z,44.30
2019-05-09T05:23:54.837Z,44.30
2019-05-09T05:26:22.455Z,44.30
2019-05-09T05:28:49.974Z,44.40
2019-05-09T05:31:18.095Z,44.50
2019-05-09T05:33:57.814Z,44.60
2019-05-09T05:36:27.990Z,44.50
2019-05-09T05:38:55.426Z,44.40
2019-05-09T05:41:23.005Z,44.30
2019-05-09T05:43:50.519Z,44.30
2019-05-09T05:46:34.715Z,44.40
2019-05-09T05:49:02.321Z,44.20
2019-05-09T05:51:31.467Z,44.20
2019-05-09T05:54:01.354Z,44.20
2019-05-09T05:56:28.188Z,44.20
2019-05-09T05:58:57.865Z,44.30
2019-05-09T06:01:24.946Z,44.30
2019-05-09T06:03:52.458Z,44.40
2019-05-09T06:06:19.962Z,44.40
2019-05-09T06:08:48.524Z,44.30
2019-05-09T06:11:17.715Z,44.60
2019-05-09T06:13:54.427Z,44.50
2019-05-09T06:16:14.701Z,44.30
2019-05-09T06:18:42.267Z,44.40
2019-05-09T06:21:09.765Z,44.20
2019-05-09T06:23:37.491Z,44.20
2019-05-09T06:26:08.494Z,44.20
2019-05-09T06:28:34.336Z,44.10
2019-05-09T06:31:02.118Z,44.10
2019-05-09T06:33:29.629Z,44.10
2019-05-09T06:35:58.891Z,44.00
2019-05-09T06:38:28.205Z,44.10
2019-05-09T06:40:57.985Z,44.00
2019-05-09T06:43:28.889Z,44.10
2019-05-09T06:46:03.168Z,44.10
2019-05-09T06:48:30.734Z,44.10
2019-05-09T06:50:58.261Z,44.10
2019-05-09T06:53:27.261Z,44.20
2019-05-09T06:55:54.845Z,44.30
2019-05-09T06:58:32.175Z,44.40
2019-05-09T07:01:19.646Z,44.20
2019-05-09T07:03:48.792Z,44.20
2019-05-09T07:06:30.195Z,44.40
2019-05-09T07:08:59.353Z,44.80
2019-05-09T07:11:27.580Z,44.90
2019-05-09T07:13:55.146Z,45.00
2019-05-09T07:16:22.661Z,45.20
2019-05-09T07:18:50.170Z,45.30
2019-05-09T07:21:19.018Z,45.80
2019-05-09T07:23:47.944Z,46.00
2019-05-09T07:26:17.852Z,46.20
2019-05-09T07:28:48.220Z,46.20
2019-05-09T07:31:19.270Z,45.90
2019-05-09T07:33:48.440Z,45.80
2019-05-09T07:36:15.949Z,46.20
2019-05-09T07:38:43.448Z,46.50
2019-05-09T07:41:11.005Z,46.60
2019-05-09T07:43:38.745Z,46.60
2019-05-09T07:46:08.745Z,46.80
2019-05-09T07:48:38.243Z,47.00
2019-05-09T07:51:07.872Z,47.10
2019-05-09T07:53:35.190Z,47.30
2019-05-09T07:56:02.776Z,47.30
2019-05-09T07:58:30.281Z,47.40
2019-05-09T08:01:01.005Z,47.60
2019-05-09T08:03:28.284Z,47.70
2019-05-09T08:05:57.848Z,47.60
2019-05-09T08:08:27.647Z,47.80
2019-05-09T08:10:54.321Z,47.80
2019-05-09T08:13:21.954Z,47.30
2019-05-09T08:15:49.462Z,47.10
2019-05-09T08:18:17.508Z,47.00
2019-05-09T08:20:45.033Z,46.80
2019-05-09T08:23:12.545Z,46.70
2019-05-09T08:25:40.060Z,46.60
2019-05-09T08:28:09.162Z,46.40
2019-05-09T08:30:40.130Z,46.50
2019-05-09T08:33:08.326Z,46.50
2019-05-09T08:35:38.119Z,46.60
2019-05-09T08:38:04.868Z,46.90
2019-05-09T08:40:32.441Z,46.90
2019-05-09T08:42:59.952Z,46.70
2019-05-09T08:45:31.036Z,46.70
2019-05-09T08:47:57.716Z,46.80
2019-05-09T08:50:32.833Z,46.70
2019-05-09T08:53:00.382Z,46.70
2019-05-09T08:55:28.014Z,46.70
2019-05-09T08:57:55.657Z,46.80
2019-05-09T09:00:23.176Z,46.90
2019-05-09T09:02:50.762Z,46.90
2019-05-09T09:05:18.845Z,46.70
2019-05-09T09:07:48.528Z,46.70
2019-05-09T09:10:18.453Z,46.60
2019-05-09T09:12:47.509Z,46.40
2019-05-09T09:15:14.219Z,46.40
2019-05-09T09:17:41.684Z,47.00
2019-05-09T09:20:09.163Z,46.20
2019-05-09T09:22:37.606Z,46.20
2019-05-09T09:25:07.471Z,46.10
2019-05-09T09:27:34.589Z,46.00
2019-05-09T09:30:16.449Z,46.00
2019-05-09T09:32:31.242Z,46.50
2019-05-09T09:34:58.900Z,46.00
2019-05-09T09:37:32.757Z,45.90
2019-05-09T09:39:58.070Z,45.90
2019-05-09T09:42:24.834Z,45.90
2019-05-09T09:44:52.312Z,45.90
2019-05-09T09:47:23.259Z,45.90
2019-05-09T09:49:49.274Z,46.00
2019-05-09T09:52:18.723Z,46.00
2019-05-09T09:54:48.060Z,46.00
2019-05-09T09:57:18.806Z,45.90
2019-05-09T09:59:48.421Z,45.90
2019-05-09T10:02:16.978Z,45.90
2019-05-09T10:04:44.449Z,46.00
2019-05-09T10:07:11.914Z,46.30
2019-05-09T10:09:39.381Z,45.90
2019-05-09T10:12:09.049Z,45.90
2019-05-09T10:14:37.672Z,45.80
2019-05-09T10:17:10.342Z,45.60
2019-05-09T10:19:42.640Z,45.50
2019-05-09T10:22:24.588Z,45.50
2019-05-09T10:24:50.094Z,45.40
2019-05-09T10:27:18.564Z,45.40
2019-05-09T10:29:47.983Z,45.40
2019-05-09T10:32:18.228Z,45.40
2019-05-09T10:34:48.822Z,45.40
2019-05-09T10:37:15.306Z,45.40
2019-05-09T10:39:42.783Z,45.30
2019-05-09T10:42:11.895Z,45.20
2019-05-09T10:44:44.014Z,45.30
2019-05-09T10:47:27.190Z,45.50
2019-05-09T10:49:54.293Z,45.60
2019-05-09T10:52:21.758Z,45.50
2019-05-09T10:54:49.229Z,45.50
2019-05-09T10:57:16.697Z,45.40
2019-05-09T10:59:44.165Z,45.30
2019-05-09T11:02:11.635Z,45.20
2019-05-09T11:04:42.902Z,45.70
2019-05-09T11:07:08.290Z,45.10
2019-05-09T11:09:35.753Z,45.10
2019-05-09T11:12:03.295Z,45.10
2019-05-09T11:14:36.921Z,45.00
2019-05-09T11:17:10.798Z,45.10
2019-05-09T11:19:29.208Z,45.10
2019-05-09T11:21:58.643Z,45.50
2019-05-09T11:24:38.812Z,45.10
2019-05-09T11:26:55.091Z,45.00
2019-05-09T11:29:22.545Z,44.90
2019-05-09T11:31:50.013Z,45.00
2019-05-09T11:34:18.865Z,45.40
2019-05-09T11:36:46.628Z,45.20
2019-05-09T11:39:14.069Z,45.30
2019-05-09T11:41:41.566Z,45.40
2019-05-09T11:44:09.032Z,45.50
2019-05-09T11:46:38.248Z,45.50
2019-05-09T11:49:08.025Z,45.40
2019-05-09T11:51:34.915Z,45.40
2019-05-09T11:54:02.377Z,45.20
2019-05-09T11:56:29.854Z,45.10
2019-05-09T11:58:57.877Z,45.10
2019-05-09T12:01:25.672Z,45.10
2019-05-09T12:03:53.212Z,45.10
2019-05-09T12:06:20.766Z,45.10
2019-05-09T12:08:48.594Z,45.10
2019-05-09T12:11:18.169Z,45.00
2019-05-09T12:13:45.381Z,45.00
2019-05-09T12:16:13.037Z,45.00
2019-05-09T12:18:40.495Z,44.90
2019-05-09T12:21:08.561Z,45.00
2019-05-09T12:23:37.772Z,44.90
2019-05-09T12:26:08.022Z,44.90
2019-05-09T12:28:34.576Z,45.00
2019-05-09T12:31:02.047Z,44.90
2019-05-09T12:33:33.073Z,45.00
2019-05-09T12:35:59.469Z,45.00
2019-05-09T12:38:27.854Z,45.10
2019-05-09T12:41:00.256Z,45.20
2019-05-09T12:43:24.678Z,45.30
2019-05-09T12:45:52.138Z,45.40
2019-05-09T12:48:19.742Z,45.50
2019-05-09T12:50:48.894Z,45.70
2019-05-09T12:53:18.752Z,45.70
2019-05-09T12:55:47.597Z,45.80
2019-05-09T12:58:18.938Z,45.70
2019-05-09T13:00:49.248Z,45.80
2019-05-09T13:03:17.788Z,45.80
2019-05-09T13:05:47.012Z,46.10
2019-05-09T13:08:14.374Z,46.10
2019-05-09T13:10:41.844Z,46.00
2019-05-09T13:13:09.380Z,45.90
2019-05-09T13:15:38.575Z,45.80
2019-05-09T13:18:21.122Z,45.70
2019-05-09T13:20:38.104Z,45.70
2019-05-09T13:23:04.635Z,45.60
2019-05-09T13:25:32.098Z,45.60
2019-05-09T13:27:59.574Z,45.50
2019-05-09T13:30:28.439Z,45.50
2019-05-09T13:32:56.212Z,45.50
2019-05-09T13:35:23.659Z,45.50
2019-05-09T13:37:51.217Z,45.40
2019-05-09T13:40:19.139Z,45.50
2019-05-09T13:42:48.982Z,45.70
2019-05-09T13:45:18.435Z,45.70
2019-05-09T13:47:45.238Z,45.80
2019-05-09T13:50:12.707Z,45.80
2019-05-09T13:52:40.433Z,45.60
2019-05-09T13:55:08.712Z,45.60
2019-05-09T13:57:36.494Z,45.50
2019-05-09T14:00:04.798Z,45.40
2019-05-09T14:02:32.261Z,46.00
2019-05-09T14:04:59.788Z,45.20
2019-05-09T14:07:27.885Z,45.10
2019-05-09T14:09:55.741Z,45.20
2019-05-09T14:12:23.209Z,45.10
2019-05-09T14:14:50.685Z,45.10
2019-05-09T14:17:19.089Z,45.10
2019-05-09T14:19:50.913Z,45.10
2019-05-09T14:22:17.959Z,45.10
2019-05-09T14:24:45.622Z,45.40
2019-05-09T14:27:13.086Z,45.50
2019-05-09T14:29:40.569Z,45.70
2019-05-09T14:32:08.143Z,45.90
2019-05-09T14:34:38.211Z,45.80
2019-05-09T14:37:04.853Z,45.90
2019-05-09T14:39:32.314Z,46.10
2019-05-09T14:41:59.789Z,46.30
2019-05-09T14:44:27.786Z,46.50
2019-05-09T14:46:55.414Z,46.60
2019-05-09T14:49:22.962Z,46.70
2019-05-09T14:51:50.713Z,46.70
2019-05-09T14:54:18.282Z,46.70
2019-05-09T14:56:48.387Z,46.50
2019-05-09T14:59:15.018Z,46.60
2019-05-09T15:01:43.940Z,46.60
2019-05-09T15:04:11.797Z,46.50
2019-05-09T15:06:39.298Z,46.50
2019-05-09T15:09:08.232Z,46.50
2019-05-09T15:11:39.460Z,47.10
2019-05-09T15:14:05.344Z,46.40
2019-05-09T15:16:32.813Z,46.40
2019-05-09T15:19:00.272Z,46.40
2019-05-09T15:21:27.755Z,46.40
2019-05-09T15:23:55.223Z,46.40
2019-05-09T15:26:22.694Z,46.40
2019-05-09T15:28:50.280Z,46.50
2019-05-09T15:31:18.418Z,46.50
2019-05-09T15:33:48.438Z,46.50
2019-05-09T15:36:15.283Z,46.70
2019-05-09T15:38:42.750Z,46.90
2019-05-09T15:41:12.305Z,46.70
2019-05-09T15:43:39.440Z,46.70
2019-05-09T15:46:18.638Z,46.60
2019-05-09T15:48:46.297Z,46.60
2019-05-09T15:51:13.773Z,46.70
2019-05-09T15:53:41.236Z,46.50
2019-05-09T15:56:08.722Z,46.60
2019-05-09T15:58:38.538Z,46.70
2019-05-09T16:01:07.945Z,46.70
2019-05-09T16:03:34.686Z,46.80
2019-05-09T16:06:02.176Z,46.50
2019-05-09T16:08:29.656Z,46.50
2019-05-09T16:10:58.111Z,47.00
2019-05-09T16:13:28.300Z,46.90
2019-05-09T16:15:57.460Z,46.70
2019-05-09T16:18:24.093Z,46.50
2019-05-09T16:20:51.687Z,46.60
2019-05-09T16:23:19.163Z,46.30
2019-05-09T16:25:48.008Z,46.30
2019-05-09T16:28:18.399Z,46.30
2019-05-09T16:30:44.902Z,46.10
2019-05-09T16:33:12.382Z,46.30
2019-05-09T16:35:39.846Z,46.30
2019-05-09T16:38:10.600Z,46.40
2019-05-09T16:40:38.668Z,46.40
2019-05-09T16:43:08.870Z,47.20
2019-05-09T16:45:35.149Z,46.60
2019-05-09T16:48:02.627Z,47.40
2019-05-09T16:50:30.088Z,46.80
2019-05-09T16:52:58.468Z,46.80
2019-05-09T16:55:31.251Z,46.80
2019-05-09T16:57:57.346Z,46.70
2019-05-09T17:00:32.228Z,46.70
2019-05-09T17:02:59.704Z,46.60
2019-05-09T17:05:27.915Z,46.50
2019-05-09T17:07:55.537Z,47.20
2019-05-09T17:10:23.010Z,46.40
2019-05-09T17:12:50.488Z,46.40
2019-05-09T17:15:19.593Z,46.40
2019-05-09T17:17:47.687Z,46.40
2019-05-09T17:20:19.185Z,46.30
2019-05-09T17:23:11.493Z,46.40
2019-05-09T17:25:33.370Z,46.70
2019-05-09T17:28:01.017Z,46.70
2019-05-09T17:30:28.816Z,46.70
2019-05-09T17:32:58.289Z,46.60
2019-05-09T17:35:27.761Z,46.60
2019-05-09T17:37:54.863Z,46.50
2019-05-09T17:40:22.350Z,46.50
2019-05-09T17:42:49.826Z,46.50
2019-05-09T17:45:17.293Z,46.60
2019-05-09T17:47:44.770Z,46.70
2019-05-09T17:50:12.253Z,46.70
2019-05-09T17:52:39.726Z,47.40
2019-05-09T17:55:07.462Z,46.60
2019-05-09T17:57:35.138Z,46.50
2019-05-09T18:00:03.255Z,46.60
2019-05-09T18:02:30.739Z,46.40
2019-05-09T18:04:58.334Z,46.50
2019-05-09T18:07:27.908Z,46.60
2019-05-09T18:09:55.041Z,46.60
2019-05-09T18:12:22.518Z,46.50
2019-05-09T18:14:49.986Z,46.60
2019-05-09T18:17:18.012Z,46.60
2019-05-09T18:19:46.033Z,46.60
2019-05-09T18:22:13.515Z,46.50
2019-05-09T18:24:41.109Z,46.60
2019-05-09T18:27:08.818Z,46.40
2019-05-09T18:29:38.062Z,46.40
2019-05-09T18:32:07.695Z,46.50
2019-05-09T18:34:37.856Z,46.50
2019-05-09T18:37:04.624Z,46.40
2019-05-09T18:39:32.169Z,46.40
2019-05-09T18:41:59.930Z,46.50
2019-05-09T18:44:27.651Z,46.70
2019-05-09T18:46:57.513Z,46.80
2019-05-09T18:49:24.438Z,46.90
2019-05-09T18:52:03.169Z,46.80
2019-05-09T18:54:21.173Z,46.70
2019-05-09T18:56:48.698Z,46.60
2019-05-09T18:59:16.206Z,46.60
2019-05-09T19:01:43.708Z,46.50
2019-05-09T19:04:11.170Z,46.40
2019-05-09T19:06:39.957Z,46.50
2019-05-09T19:09:07.529Z,46.50
2019-05-09T19:11:35.089Z,46.50
2019-05-09T19:14:03.765Z,46.40
2019-05-09T19:16:32.876Z,46.40
2019-05-09T19:19:18.254Z,46.30
2019-05-09T19:21:50.135Z,46.30
2019-05-09T19:24:17.640Z,46.40
2019-05-09T19:26:45.202Z,46.40
2019-05-09T19:29:12.671Z,46.70
2019-05-09T19:31:40.222Z,47.30
2019-05-09T19:34:07.752Z,46.80
2019-05-09T19:36:35.230Z,46.70
2019-05-09T19:39:03.853Z,46.80
2019-05-09T19:41:31.379Z,46.80
2019-05-09T19:43:58.841Z,47.00
2019-05-09T19:46:26.314Z,47.10
2019-05-09T19:48:53.785Z,47.10
2019-05-09T19:51:21.258Z,47.10
2019-05-09T19:53:48.722Z,47.10
2019-05-09T19:56:16.191Z,47.20
2019-05-09T19:58:43.650Z,47.20
2019-05-09T20:01:11.182Z,47.10
2019-05-09T20:03:38.691Z,47.10
2019-05-09T20:06:06.298Z,47.00
2019-05-09T20:08:34.423Z,47.00
2019-05-09T20:11:03.778Z,47.00
2019-05-09T20:13:32.930Z,47.00
2019-05-09T20:16:00.418Z,47.00
2019-05-09T20:18:27.971Z,47.00
2019-05-09T20:20:55.465Z,46.50
2019-05-09T20:23:23.000Z,46.90
2019-05-09T20:25:50.564Z,46.90
2019-05-09T20:28:18.031Z,46.80
2019-05-09T20:30:45.570Z,46.90
2019-05-09T20:33:13.038Z,46.90
2019-05-09T20:35:40.523Z,46.90
2019-05-09T20:38:08.530Z,46.90
2019-05-09T20:40:36.637Z,46.90
2019-05-09T20:43:04.298Z,47.00
2019-05-09T20:45:31.957Z,47.00
2019-05-09T20:47:59.598Z,47.70
2019-05-09T20:50:27.298Z,47.30
2019-05-09T20:53:08.616Z,47.50
2019-05-09T20:55:24.345Z,47.60
2019-05-09T20:57:52.271Z,47.70
2019-05-09T21:00:20.081Z,47.70
2019-05-09T21:02:47.737Z,47.50
2019-05-09T21:05:15.388Z,47.40
2019-05-09T21:07:43.048Z,47.30
2019-05-09T21:10:10.691Z,47.10
2019-05-09T21:12:38.337Z,47.00
2019-05-09T21:15:06.558Z,47.10
2019-05-09T21:17:34.215Z,46.80
2019-05-09T21:20:01.856Z,46.80
2019-05-09T21:22:29.514Z,46.70
2019-05-09T21:24:57.162Z,46.70
2019-05-09T21:27:24.830Z,46.70
2019-05-09T21:29:52.638Z,46.50
2019-05-09T21:32:20.300Z,46.40
2019-05-09T21:34:47.757Z,46.40
2019-05-09T21:37:15.260Z,46.40
2019-05-09T21:39:42.788Z,46.20
2019-05-09T21:42:10.250Z,46.20
2019-05-09T21:44:37.807Z,46.20
2019-05-09T21:47:05.322Z,46.20
2019-05-09T21:49:32.783Z,46.20
2019-05-09T21:52:00.297Z,46.30
2019-05-09T21:54:27.778Z,46.40
2019-05-09T21:56:55.252Z,46.50
2019-05-09T21:59:22.719Z,46.50
2019-05-09T22:01:50.207Z,46.50
2019-05-09T22:04:17.669Z,46.50
2019-05-09T22:06:45.139Z,46.30
2019-05-09T22:09:12.978Z,46.20
2019-05-09T22:11:40.464Z,46.20
2019-05-09T22:14:07.914Z,46.20
2019-05-09T22:16:35.455Z,46.00
2019-05-09T22:19:02.922Z,45.90
2019-05-09T22:21:30.382Z,45.90
2019-05-09T22:23:57.859Z,45.90
2019-05-09T22:26:25.310Z,46.50
2019-05-09T22:28:52.778Z,45.80
2019-05-09T22:31:20.254Z,45.80
2019-05-09T22:33:47.722Z,45.80
2019-05-09T22:36:15.183Z,45.80
2019-05-09T22:38:43.730Z,45.70
2019-05-09T22:41:11.294Z,45.80
2019-05-09T22:43:38.762Z,45.70
2019-05-09T22:46:06.303Z,45.80
2019-05-09T22:48:33.760Z,45.80
2019-05-09T22:51:01.221Z,45.80
2019-05-09T22:53:28.686Z,45.90
2019-05-09T22:55:56.152Z,45.80
2019-05-09T22:58:23.626Z,45.80
2019-05-09T23:00:51.087Z,46.00
2019-05-09T23:03:18.553Z,46.10
2019-05-09T23:05:46.018Z,46.10
2019-05-09T23:08:13.486Z,46.20
2019-05-09T23:10:40.955Z,46.80
2019-05-09T23:13:08.426Z,46.20
2019-05-09T23:15:35.890Z,46.20
2019-05-09T23:18:03.378Z,46.30
2019-05-09T23:20:50.980Z,46.20
2019-05-09T23:23:32.065Z,46.30
2019-05-09T23:25:59.593Z,46.50
2019-05-09T23:28:27.542Z,46.60
2019-05-09T23:30:56.645Z,46.60
2019-05-09T23:33:25.590Z,46.40
2019-05-09T23:35:53.069Z,46.70
2019-05-09T23:38:20.826Z,46.70
2019-05-09T23:40:48.314Z,46.70
2019-05-09T23:43:15.774Z,46.70
2019-05-09T23:45:43.241Z,46.70
2019-05-09T23:48:10.718Z,46.70
2019-05-09T23:50:38.187Z,46.80
2019-05-09T23:53:05.651Z,46.70
2019-05-09T23:55:51.150Z,46.80
2019-05-09T23:58:36.587Z,46.80
